Alpine Airstrip, AK

2:09 AM AKDT on August 28, 2015 (GMT -0800)
Deadhorse Alpine Airstrip | | Change Station
CLOSE
Current Station
Airport
Location: Deadhorse Alpine Airstrip,
Elevation: 16 ft
Nearby Weather Stations

Elev 16 ft 70.34 °N, 150.94 °W | Updated 7 hours ago

Snow
Snow
37 °F
Feels Like 26 °F
N
26
Wind Variable Wind from WSW
Gusts 34 mph

Today
High -- | Low -- °F
--% Chance of Precip.
Yesterday
High -- | Low -- °F
Precip. -- in
5:59 AM 10:07 PM
Waxing Gibbous, 97% visible
Pressure 29.74 in
Visibility -9999.0 miles
Clouds Scattered Clouds 1800 ft
Mostly Cloudy 2600 ft
Mostly Cloudy 4400 ft
Windchill 26 °F
Dew Point 31 °F
Humidity 78%
Rainfall 0.00 in
Snow Depth Not available.
UV 1 out of 12
Pollen Not available.
Air Quality Not available.
Flu Activity Not available.
METAR PALP 280252Z 28022KT -RA SCT018 BKN026 BKN044 04/01 A2974 RMK LAST
Pressure 29.74 in
Visibility -9999.0 miles
Clouds Scattered Clouds 1800 ft
Mostly Cloudy 2600 ft
Mostly Cloudy 4400 ft
Windchill 26 °F
Dew Point 31 °F
Humidity 78%
Rainfall 0.00 in
Snow Depth Not available.
UV 1 out of 12
Pollen Not available.
Air Quality Not available.
Flu Activity Not available.
METAR PALP 280252Z 28022KT -RA SCT018 BKN026 BKN044 04/01 A2974 RMK LAST

10-Day Weather Forecast

×

Almanac

Astronomy

Aug. 28, 2015 Rise Set
Actual Time
Civil Twilight
Nautical Twilight
Astronomical Twilight
Moon
Length of Visible Light
Length of Day
Tomorrow will be .
, % of the Moon is Illuminated

Today's Extremes

State Highs State Lows

Community

WunderPhotos

Upload Photos

1,850,355 photos uploaded!

WunderBlogs® & News

Nearby

Air Quality

  Air Quality AQ Index Pollutant
Not available.

Snow Depth

Station Depth Elevation

Earthquake Activity

City Distance Mag. Time & Date
Minimum magnitude displayed is 2.5.

Coastal Water Temperatures

Place Temperature

Stations

Nearby Weather Stations

Station Location Temp. Windchill Dew Point Humidity Wind Precip. Elev Updated Type